Terminal Aerodrome Forecast
Issued by NWS Shreveport, LA

Home | Current Version | Previous Version | Text Only | Print | Product List | Glossary On
Versions: 1 2 3 4 5 6 7 8 9 10 11 12 13 14 15 16 17 18 19 20 21 22 23 24 25
000
FTUS44 KSHV 212344
TAFSHV
TAF
KSHV 212344Z 2200/2224 09011KT 3SM SHRA BR OVC009
     FM220300 03008KT 3SM SHRA BR OVC005
     FM222000 11006KT 3SM SHRA BR OVC005=

USA.gov is the U.S. government's official web portal to all federal, state and local government web resources and services.